Time;durP1;ratioP1;P1;durP2;ratioP2;P2;SDS_P1;SDS_P2;PMS_P1;PMS_P2;Temp;Humidity;BMP_temperature;BMP_pressure;BME280_temperature;BME280_humidity;BME280_pressure;Samples;Min_cycle;Max_cycle;Signal;HPM_P1;HPM_P2
2022/12/13 00:01:27;;;;;;;7.55;4.18;;;10.50;99.90;;;;;;4959825;28;20413;-72
2022/12/13 00:03:57;;;;;;;6.63;4.70;;;10.50;99.90;;;;;;4957946;28;20066;-71
2022/12/13 00:06:25;;;;;;;6.53;4.63;;;10.50;99.90;;;;;;4964918;28;20057;-72
2022/12/13 00:08:53;;;;;;;8.52;5.15;;;10.40;99.90;;;;;;4959068;28;20054;-73
2022/12/13 00:11:21;;;;;;;8.10;5.28;;;10.30;99.90;;;;;;4967903;28;20133;-73
2022/12/13 00:13:49;;;;;;;8.45;4.72;;;10.30;99.90;;;;;;4962655;28;20429;-72
2022/12/13 00:16:21;;;;;;;5.65;4.32;;;10.30;99.90;;;;;;4971233;28;20058;-72
2022/12/13 00:18:50;;;;;;;7.10;3.67;;;10.30;99.90;;;;;;4955765;28;20500;-72
2022/12/13 00:21:20;;;;;;;5.60;3.80;;;10.30;99.90;;;;;;4966537;28;20054;-72
2022/12/13 00:23:48;;;;;;;5.97;3.67;;;10.30;99.90;;;;;;4952126;28;20397;-74
2022/12/13 00:26:18;;;;;;;7.85;4.88;;;10.30;99.90;;;;;;4958200;28;20062;-72
2022/12/13 00:28:48;;;;;;;8.40;4.65;;;10.30;99.90;;;;;;4958796;28;20055;-71
2022/12/13 00:31:17;;;;;;;9.07;5.28;;;10.30;99.90;;;;;;4956841;28;20134;-71
2022/12/13 00:34:04;;;;;;;6.78;4.05;;;10.40;99.90;;;;;;4954248;28;20134;-72
2022/12/13 00:36:31;;;;;;;6.88;4.55;;;10.30;99.90;;;;;;4969722;28;20058;-72
2022/12/13 00:38:59;;;;;;;6.50;4.93;;;10.30;99.90;;;;;;4965279;28;20130;-72
2022/12/13 00:41:30;;;;;;;16.83;6.28;;;10.30;99.90;;;;;;4961892;28;20047;-73
2022/12/13 00:43:59;;;;;;;8.43;4.82;;;10.30;99.90;;;;;;4952203;28;20040;-72
2022/12/13 00:46:28;;;;;;;6.32;4.47;;;10.30;99.90;;;;;;4964824;28;20047;-73
2022/12/13 00:48:58;;;;;;;6.30;4.28;;;10.40;99.90;;;;;;4945600;28;20158;-73
2022/12/13 00:51:27;;;;;;;6.80;3.97;;;10.40;99.90;;;;;;4956586;28;20065;-72
2022/12/13 00:53:54;;;;;;;5.55;3.65;;;10.40;99.90;;;;;;4959974;28;20055;-73
2022/12/13 00:56:24;;;;;;;9.20;4.63;;;10.40;99.90;;;;;;4965877;28;20059;-72
2022/12/13 00:58:52;;;;;;;5.88;3.88;;;10.30;99.90;;;;;;4976114;28;20062;-73
2022/12/13 01:01:26;;;;;;;5.75;4.13;;;10.40;99.90;;;;;;4961001;28;20050;-72
2022/12/13 01:03:55;;;;;;;6.07;3.50;;;10.40;99.90;;;;;;4934322;29;20051;-72
2022/12/13 01:06:28;;;;;;;7.35;3.25;;;10.40;99.90;;;;;;4959696;28;20094;-72
2022/12/13 01:08:56;;;;;;;7.45;4.10;;;10.50;99.90;;;;;;4968317;28;20422;-72
2022/12/13 01:11:24;;;;;;;6.05;3.65;;;10.40;99.90;;;;;;4967723;28;20030;-72
2022/12/13 01:13:52;;;;;;;4.63;3.55;;;10.40;99.90;;;;;;4944759;28;20059;-72
2022/12/13 01:16:20;;;;;;;7.53;3.50;;;10.40;99.90;;;;;;4957659;28;20069;-72
2022/12/13 01:18:47;;;;;;;11.00;5.18;;;10.40;99.90;;;;;;4939302;28;20046;-74
2022/12/13 01:21:17;;;;;;;6.13;3.15;;;10.40;99.90;;;;;;4964887;28;20057;-72
2022/12/13 01:23:45;;;;;;;6.40;3.75;;;10.50;99.90;;;;;;4950761;28;20066;-73
2022/12/13 01:26:17;;;;;;;5.88;3.38;;;10.50;99.90;;;;;;4960700;28;20051;-72
2022/12/13 01:28:45;;;;;;;6.13;3.70;;;10.50;99.90;;;;;;4956304;28;20039;-73
2022/12/13 01:31:16;;;;;;;4.15;3.20;;;10.50;99.90;;;;;;4976096;28;20057;-72
2022/12/13 01:33:43;;;;;;;5.50;2.67;;;10.50;99.90;;;;;;4945264;28;20045;-72
2022/12/13 01:36:14;;;;;;;5.90;3.13;;;10.50;99.90;;;;;;4956860;28;20134;-71
2022/12/13 01:38:42;;;;;;;9.52;3.30;;;10.50;99.90;;;;;;4967870;28;20061;-72
2022/12/13 01:41:17;;;;;;;6.28;2.97;;;10.50;99.90;;;;;;4967821;28;20061;-72
2022/12/13 01:43:45;;;;;;;5.72;3.33;;;10.60;99.90;;;;;;4970279;28;20039;-72
2022/12/13 01:46:15;;;;;;;4.35;2.65;;;10.50;99.90;;;;;;4962701;28;20748;-72
2022/12/13 01:49:09;;;;;;;5.90;3.50;;;10.60;99.90;;;;;;4954916;28;20575;-72
2022/12/13 01:51:42;;;;;;;4.70;2.80;;;10.60;99.90;;;;;;4969324;28;20305;-72
2022/12/13 01:54:15;;;;;;;4.70;2.78;;;10.60;99.90;;;;;;4951327;28;20054;-73
2022/12/13 01:56:51;;;;;;;6.55;2.70;;;10.60;99.90;;;;;;4956352;28;20476;-72
2022/12/13 01:59:20;;;;;;;3.65;2.45;;;10.60;99.90;;;;;;4938031;28;20054;-72
2022/12/13 02:01:49;;;;;;;6.65;2.40;;;10.60;99.90;;;;;;4961024;28;20043;-72
2022/12/13 02:04:27;;;;;;;4.70;2.67;;;10.60;99.90;;;;;;4970261;28;20043;-72
2022/12/13 02:06:56;;;;;;;3.30;2.70;;;10.60;99.90;;;;;;4960818;28;20154;-72
2022/12/13 02:09:25;;;;;;;3.70;2.25;;;10.60;99.90;;;;;;4960603;28;20386;-73
2022/12/13 02:11:53;;;;;;;4.18;2.45;;;10.60;99.90;;;;;;4958273;28;20070;-74
2022/12/13 02:14:20;;;;;;;5.13;2.85;;;10.60;99.90;;;;;;4962718;28;20051;-73
2022/12/13 02:17:08;;;;;;;6.57;2.70;;;10.60;99.90;;;;;;4953794;29;20425;-73
2022/12/13 02:19:55;;;;;;;3.00;1.83;;;10.60;99.90;;;;;;4952114;29;20141;-72
2022/12/13 02:23:11;;;;;;;3.10;2.33;;;10.60;99.90;;;;;;4954369;28;20039;-73
2022/12/13 02:25:54;;;;;;;6.18;3.42;;;10.60;99.90;;;;;;4951873;28;20071;-73
2022/12/13 02:28:40;;;;;;;2.15;1.75;;;10.60;99.90;;;;;;4970862;28;20057;-73
2022/12/13 02:31:28;;;;;;;2.30;1.80;;;10.70;99.90;;;;;;4956155;28;20508;-73
2022/12/13 02:34:27;;;;;;;3.22;2.28;;;10.60;99.90;;;;;;4966762;28;20094;-73
2022/12/13 02:37:17;;;;;;;4.28;2.10;;;10.60;99.90;;;;;;4953439;29;20059;-72
2022/12/13 02:39:57;;;;;;;3.55;2.10;;;10.60;99.90;;;;;;4954097;29;20070;-72
2022/12/13 02:42:33;;;;;;;6.72;2.78;;;10.60;99.90;;;;;;4952751;29;20055;-73
2022/12/13 02:45:13;;;;;;;4.30;2.65;;;10.60;99.90;;;;;;4948877;28;20051;-73
2022/12/13 02:47:46;;;;;;;5.32;1.85;;;10.60;99.90;;;;;;4971698;28;20050;-72
2022/12/13 02:50:14;;;;;;;4.57;2.72;;;10.60;99.90;;;;;;4972804;28;20092;-72
2022/12/13 02:52:45;;;;;;;5.15;2.38;;;10.60;99.90;;;;;;4972531;28;20114;-73
2022/12/13 02:55:15;;;;;;;3.85;2.33;;;10.60;99.90;;;;;;4940980;29;20053;-73
2022/12/13 02:57:44;;;;;;;3.38;2.55;;;10.60;99.90;;;;;;4951875;29;20069;-73
2022/12/13 03:00:34;;;;;;;3.53;2.08;;;10.60;99.90;;;;;;4919912;29;20051;-73
2022/12/13 03:03:20;;;;;;;4.95;2.42;;;10.60;99.90;;;;;;4936612;29;20058;-73
2022/12/13 03:08:53;;;;;;;4.45;2.28;;;10.60;99.90;;;;;;4972381;28;20362;-73
2022/12/13 03:11:24;;;;;;;5.28;2.83;;;10.60;99.90;;;;;;4970937;28;20043;-73
2022/12/13 03:14:06;;;;;;;9.98;2.20;;;10.60;99.90;;;;;;4967510;28;20043;-74
2022/12/13 03:16:38;;;;;;;3.97;2.10;;;10.60;99.90;;;;;;4953093;28;20055;-73
2022/12/13 03:19:09;;;;;;;3.63;2.00;;;10.60;99.90;;;;;;4935036;29;20142;-73
2022/12/13 03:21:45;;;;;;;3.40;2.03;;;10.70;99.90;;;;;;4952652;28;20039;-73
2022/12/13 03:24:17;;;;;;;3.28;2.00;;;10.70;99.90;;;;;;4959378;28;20043;-73
2022/12/13 03:26:47;;;;;;;4.32;2.13;;;10.60;99.90;;;;;;4970831;28;20054;-73
2022/12/13 03:29:15;;;;;;;4.70;2.30;;;10.60;99.90;;;;;;4972186;28;20066;-73
2022/12/13 03:31:42;;;;;;;8.63;3.53;;;10.60;99.90;;;;;;4970329;28;20042;-73
2022/12/13 03:34:10;;;;;;;2.58;1.70;;;10.50;99.90;;;;;;4964787;28;20400;-73
2022/12/13 03:36:38;;;;;;;3.20;2.00;;;10.60;99.90;;;;;;4952778;29;20046;-73
2022/12/13 03:39:06;;;;;;;4.43;2.20;;;10.60;99.90;;;;;;4957794;28;20509;-73
2022/12/13 03:41:34;;;;;;;3.30;1.90;;;10.60;99.90;;;;;;4970428;28;20495;-72
2022/12/13 03:44:06;;;;;;;7.65;2.92;;;10.60;99.90;;;;;;4970283;28;20042;-73
2022/12/13 03:46:34;;;;;;;5.90;4.25;;;10.50;99.90;;;;;;4970562;28;20054;-73
2022/12/13 03:49:02;;;;;;;4.85;3.15;;;10.50;99.90;;;;;;4970737;28;20074;-73
2022/12/13 03:51:29;;;;;;;3.00;2.00;;;10.40;99.90;;;;;;4969722;28;20051;-73
2022/12/13 03:53:56;;;;;;;2.95;1.77;;;10.40;99.90;;;;;;4970051;28;20170;-73
2022/12/13 03:56:25;;;;;;;5.22;2.20;;;10.30;99.90;;;;;;4971461;28;20421;-74
2022/12/13 03:58:52;;;;;;;4.60;1.92;;;10.40;99.90;;;;;;4969946;28;20078;-73
2022/12/13 04:01:20;;;;;;;5.00;2.55;;;10.40;99.90;;;;;;4971156;28;20053;-73
2022/12/13 04:03:48;;;;;;;5.65;3.15;;;10.40;99.90;;;;;;4968132;28;20405;-72
2022/12/13 04:06:16;;;;;;;3.40;2.22;;;10.50;99.90;;;;;;4952893;28;20039;-73
2022/12/13 04:08:43;;;;;;;4.72;3.22;;;10.40;99.90;;;;;;4934846;29;20517;-73
2022/12/13 04:13:57;;;;;;;5.00;2.90;;;10.30;99.90;;;;;;4954062;28;20055;-73
2022/12/13 04:16:24;;;;;;;3.38;1.80;;;10.30;99.90;;;;;;4970225;28;20577;-73
2022/12/13 04:18:52;;;;;;;2.95;2.08;;;10.30;99.90;;;;;;4970033;28;20066;-73
2022/12/13 04:21:20;;;;;;;4.22;2.20;;;10.30;99.90;;;;;;4969981;28;20055;-73
2022/12/13 04:23:47;;;;;;;4.00;2.03;;;10.30;99.90;;;;;;4967991;28;20050;-73
2022/12/13 04:26:15;;;;;;;3.83;2.55;;;10.20;99.90;;;;;;4949945;28;20525;-73
2022/12/13 04:28:42;;;;;;;4.10;2.42;;;10.10;99.90;;;;;;4951697;28;20058;-73
2022/12/13 04:31:11;;;;;;;6.35;2.47;;;9.90;99.90;;;;;;4934774;29;20066;-73
2022/12/13 04:33:38;;;;;;;4.47;2.10;;;9.80;99.90;;;;;;4950549;28;20035;-73
2022/12/13 04:36:06;;;;;;;5.15;2.85;;;9.60;99.90;;;;;;4966325;28;20034;-73
2022/12/13 04:38:34;;;;;;;4.80;3.08;;;9.70;99.90;;;;;;4969639;28;20517;-73
2022/12/13 04:41:14;;;;;;;4.38;2.45;;;9.60;99.90;;;;;;4970586;28;20078;-73
2022/12/13 04:43:42;;;;;;;5.43;2.70;;;9.60;99.90;;;;;;4969391;28;20138;-73
2022/12/13 04:46:10;;;;;;;4.80;3.15;;;9.70;99.90;;;;;;4949308;29;20054;-73
2022/12/13 04:48:38;;;;;;;8.07;4.32;;;9.80;99.90;;;;;;4934234;29;20374;-74
2022/12/13 04:51:05;;;;;;;6.07;4.68;;;9.80;99.90;;;;;;4951371;28;20043;-73
2022/12/13 04:53:33;;;;;;;6.82;4.90;;;9.80;99.90;;;;;;4950784;28;20066;-73
2022/12/13 04:56:03;;;;;;;6.95;4.70;;;9.80;99.90;;;;;;4951596;28;20062;-72
2022/12/13 04:58:31;;;;;;;8.07;5.40;;;9.80;99.90;;;;;;4933793;29;20051;-73
2022/12/13 05:00:58;;;;;;;7.60;5.57;;;9.90;99.90;;;;;;4951076;28;20106;-73
2022/12/13 05:03:27;;;;;;;8.32;4.25;;;10.00;99.90;;;;;;4950804;28;20046;-73
2022/12/13 05:05:55;;;;;;;9.52;5.60;;;9.90;99.90;;;;;;4952017;28;20097;-73
2022/12/13 05:08:23;;;;;;;7.88;4.38;;;9.90;99.90;;;;;;4970212;28;20066;-73
2022/12/13 05:10:50;;;;;;;6.80;4.22;;;9.90;99.90;;;;;;4969674;28;20484;-73
2022/12/13 05:13:18;;;;;;;6.70;4.15;;;10.00;99.90;;;;;;4968376;28;20043;-73
2022/12/13 05:15:45;;;;;;;7.63;4.43;;;10.00;99.90;;;;;;4935743;29;20118;-73
2022/12/13 05:18:15;;;;;;;6.00;3.65;;;10.10;99.90;;;;;;4949852;29;20051;-73
2022/12/13 05:20:43;;;;;;;7.45;3.90;;;10.10;99.90;;;;;;4950469;28;20427;-73
2022/12/13 05:23:10;;;;;;;7.03;3.92;;;10.10;99.90;;;;;;4951127;28;20110;-74
2022/12/13 05:25:37;;;;;;;7.03;4.28;;;10.10;99.90;;;;;;4948826;28;20078;-73
2022/12/13 05:28:05;;;;;;;6.72;3.90;;;10.10;99.90;;;;;;4970189;28;20149;-73
2022/12/13 05:30:32;;;;;;;3.95;3.13;;;10.10;99.90;;;;;;4970130;28;20412;-72
2022/12/13 05:33:00;;;;;;;4.35;2.88;;;10.10;99.90;;;;;;4970155;28;20564;-72
2022/12/13 05:35:27;;;;;;;5.13;3.28;;;10.10;99.90;;;;;;4953744;28;20186;-72
2022/12/13 05:37:55;;;;;;;6.95;4.53;;;10.10;99.90;;;;;;4949509;29;20051;-73
2022/12/13 05:40:24;;;;;;;6.10;4.20;;;10.10;99.90;;;;;;4933438;29;20055;-73
2022/12/13 05:42:52;;;;;;;4.90;3.20;;;10.00;99.90;;;;;;4964687;28;20051;-73
2022/12/13 05:45:20;;;;;;;4.85;3.10;;;9.90;99.90;;;;;;4972538;28;20147;-73
2022/12/13 05:47:48;;;;;;;12.65;3.97;;;9.90;99.90;;;;;;4971391;28;20050;-72
2022/12/13 05:50:17;;;;;;;3.85;2.65;;;9.80;99.90;;;;;;4973882;28;20086;-72
2022/12/13 05:52:44;;;;;;;6.22;3.30;;;9.70;99.90;;;;;;4972847;28;20520;-72
2022/12/13 05:55:12;;;;;;;3.72;2.90;;;9.70;99.90;;;;;;4972044;28;20066;-72
2022/12/13 05:57:40;;;;;;;7.68;3.38;;;9.80;99.90;;;;;;4973287;28;20055;-72
2022/12/13 06:00:09;;;;;;;4.32;2.53;;;9.80;99.90;;;;;;4972261;28;20065;-72
2022/12/13 06:02:42;;;;;;;5.25;3.15;;;9.80;99.90;;;;;;4973705;28;20052;-72
2022/12/13 06:05:10;;;;;;;4.35;2.88;;;9.80;99.90;;;;;;4961668;28;20094;-73
2022/12/13 06:07:38;;;;;;;3.50;2.72;;;9.70;99.90;;;;;;4952865;29;20486;-73
2022/12/13 06:10:07;;;;;;;4.70;3.35;;;9.70;99.90;;;;;;4952924;28;20047;-73
2022/12/13 06:12:35;;;;;;;6.65;3.67;;;9.60;99.90;;;;;;4954850;28;20078;-73
2022/12/13 06:15:04;;;;;;;5.75;3.08;;;9.60;99.90;;;;;;4964116;28;20050;-73
2022/12/13 06:17:34;;;;;;;7.75;3.67;;;9.60;99.90;;;;;;4971401;28;20466;-73
2022/12/13 06:20:04;;;;;;;6.15;2.92;;;9.60;99.90;;;;;;4972001;28;20378;-73
2022/12/13 06:22:32;;;;;;;6.03;3.30;;;9.60;99.90;;;;;;4972998;28;20599;-74
2022/12/13 06:25:03;;;;;;;5.20;3.08;;;9.60;99.90;;;;;;4961699;28;20134;-73
2022/12/13 06:27:30;;;;;;;7.80;4.00;;;9.60;99.90;;;;;;4951876;29;20121;-73
2022/12/13 06:29:58;;;;;;;4.72;3.00;;;9.70;99.90;;;;;;4953498;28;20062;-73
2022/12/13 06:32:28;;;;;;;3.40;2.38;;;9.70;99.90;;;;;;4959056;28;20105;-73
2022/12/13 06:34:56;;;;;;;6.20;3.15;;;9.70;99.90;;;;;;4957946;28;20043;-73
2022/12/13 06:37:24;;;;;;;4.63;2.42;;;9.60;99.90;;;;;;4970035;28;20089;-73
2022/12/13 06:39:51;;;;;;;5.93;3.58;;;9.60;99.90;;;;;;4968534;28;20044;-72
2022/12/13 06:42:19;;;;;;;7.85;4.70;;;9.60;99.90;;;;;;4972622;28;20058;-72
2022/12/13 06:44:50;;;;;;;7.82;4.50;;;9.60;99.90;;;;;;4967953;28;20051;-72
2022/12/13 06:47:18;;;;;;;19.38;12.95;;;9.60;99.90;;;;;;4951780;29;20051;-73
2022/12/13 06:49:45;;;;;;;17.52;11.25;;;9.70;99.90;;;;;;4953544;28;20063;-73
2022/12/13 06:52:13;;;;;;;5.50;3.55;;;9.70;99.90;;;;;;4953343;28;20048;-72
2022/12/13 06:54:41;;;;;;;6.22;3.90;;;9.70;99.90;;;;;;4953576;28;20079;-72
2022/12/13 06:57:13;;;;;;;8.45;3.35;;;9.70;99.90;;;;;;4971812;28;20489;-72
2022/12/13 06:59:40;;;;;;;3.63;2.38;;;9.70;99.90;;;;;;4971999;28;20046;-73
2022/12/13 07:02:08;;;;;;;6.05;2.70;;;9.80;99.90;;;;;;4971245;28;20125;-73
2022/12/13 07:04:36;;;;;;;8.13;2.83;;;9.80;99.90;;;;;;4972167;28;20043;-73
2022/12/13 07:07:03;;;;;;;5.35;2.47;;;9.80;99.90;;;;;;4964434;28;20043;-73
2022/12/13 07:09:31;;;;;;;5.32;2.53;;;9.80;99.90;;;;;;4951384;29;20054;-73
2022/12/13 07:11:59;;;;;;;5.10;2.58;;;9.90;99.90;;;;;;4953092;28;20457;-72
2022/12/13 07:14:27;;;;;;;6.32;3.85;;;9.90;99.90;;;;;;4936096;29;20059;-72
2022/12/13 07:16:55;;;;;;;9.25;4.55;;;10.00;99.90;;;;;;4952963;28;20153;-73
2022/12/13 07:19:27;;;;;;;5.47;3.20;;;10.00;99.90;;;;;;4951239;29;20043;-72
2022/12/13 07:21:55;;;;;;;5.20;2.92;;;10.00;99.90;;;;;;4964226;28;20562;-73
2022/12/13 07:24:22;;;;;;;4.30;2.45;;;10.10;99.90;;;;;;4970369;28;20055;-73
2022/12/13 07:26:50;;;;;;;11.30;3.65;;;10.00;99.90;;;;;;4971868;28;20526;-74
2022/12/13 07:29:17;;;;;;;5.72;2.80;;;10.00;99.90;;;;;;4954607;28;20057;-74
2022/12/13 07:31:45;;;;;;;3.40;2.55;;;10.00;99.90;;;;;;4970987;28;20065;-72
2022/12/13 07:34:12;;;;;;;5.72;2.70;;;10.10;99.90;;;;;;4942380;29;20047;-72
2022/12/13 07:36:41;;;;;;;7.20;5.05;;;10.10;99.90;;;;;;4951458;28;20689;-74
2022/12/13 07:39:09;;;;;;;7.63;5.35;;;10.10;99.90;;;;;;4950653;29;20051;-72
2022/12/13 07:41:38;;;;;;;8.68;4.63;;;10.20;99.90;;;;;;4950352;29;20130;-72
2022/12/13 07:44:06;;;;;;;8.65;5.28;;;10.20;99.90;;;;;;4962127;28;20568;-73
2022/12/13 07:46:34;;;;;;;13.15;9.40;;;10.30;99.90;;;;;;4971611;28;20105;-73
2022/12/13 07:49:02;;;;;;;15.23;8.35;;;10.30;99.90;;;;;;4971713;28;20065;-73
2022/12/13 07:51:33;;;;;;;11.82;5.28;;;10.30;99.90;;;;;;4969417;28;20079;-72
2022/12/13 07:54:01;;;;;;;9.05;5.68;;;10.40;99.90;;;;;;4970759;28;20074;-73
2022/12/13 07:56:29;;;;;;;9.13;5.68;;;10.40;99.90;;;;;;4971958;28;20053;-72
2022/12/13 07:58:56;;;;;;;10.77;7.45;;;10.40;99.90;;;;;;4971753;28;20497;-72
2022/12/13 08:01:24;;;;;;;14.80;8.05;;;10.50;99.90;;;;;;4970949;28;20077;-73
2022/12/13 08:03:52;;;;;;;28.75;17.15;;;10.50;99.90;;;;;;4970063;28;20074;-73
2022/12/13 08:06:19;;;;;;;23.77;14.88;;;10.50;99.90;;;;;;4970973;28;20174;-72
2022/12/13 08:08:49;;;;;;;16.15;11.15;;;10.60;99.90;;;;;;4955059;28;20047;-72
2022/12/13 08:11:17;;;;;;;20.20;13.82;;;10.60;99.90;;;;;;4934399;29;20557;-78
2022/12/13 08:13:44;;;;;;;12.32;7.60;;;10.70;99.90;;;;;;4934986;29;20841;-71
2022/12/13 08:16:16;;;;;;;15.30;8.07;;;10.60;99.90;;;;;;4958968;28;20746;-72
2022/12/13 08:18:46;;;;;;;13.50;6.93;;;10.70;99.90;;;;;;4959152;28;20057;-76
2022/12/13 08:21:14;;;;;;;11.02;6.57;;;10.60;99.90;;;;;;4965843;28;20043;-72
2022/12/13 08:24:02;;;;;;;21.88;13.98;;;10.60;99.90;;;;;;4948294;29;20078;-74
2022/12/13 08:26:29;;;;;;;18.40;12.10;;;10.70;99.90;;;;;;4951642;28;20486;-73
2022/12/13 08:28:57;;;;;;;11.82;8.00;;;10.70;99.90;;;;;;4956325;28;20121;-72
2022/12/13 08:31:25;;;;;;;9.23;5.90;;;10.70;99.90;;;;;;4955423;28;20047;-72
2022/12/13 08:33:52;;;;;;;12.35;6.18;;;10.70;99.90;;;;;;4924817;29;20055;-72
2022/12/13 08:36:22;;;;;;;10.20;5.50;;;10.70;99.90;;;;;;4960100;28;20094;-75
2022/12/13 08:38:53;;;;;;;12.57;7.18;;;10.70;99.90;;;;;;4944962;28;20047;-74
2022/12/13 08:41:21;;;;;;;11.40;7.13;;;10.60;99.90;;;;;;4978271;28;20046;-73
2022/12/13 08:43:49;;;;;;;23.00;13.73;;;10.60;99.90;;;;;;4961643;28;20458;-72
2022/12/13 08:46:16;;;;;;;28.08;16.75;;;10.70;99.90;;;;;;4950976;28;20185;-71
2022/12/13 08:48:44;;;;;;;26.05;17.30;;;10.60;99.90;;;;;;4955466;28;20412;-74
2022/12/13 08:51:14;;;;;;;15.50;11.20;;;10.60;99.90;;;;;;4975149;28;20062;-74
2022/12/13 08:53:41;;;;;;;9.40;6.25;;;10.60;99.90;;;;;;4959449;28;20054;-72
2022/12/13 08:56:12;;;;;;;6.47;4.88;;;10.60;99.90;;;;;;4956044;28;20098;-72
2022/12/13 08:58:41;;;;;;;9.05;5.88;;;10.60;99.90;;;;;;4959604;28;20105;-72
2022/12/13 09:01:09;;;;;;;6.78;4.78;;;10.50;99.90;;;;;;4958244;28;20097;-71
2022/12/13 09:03:37;;;;;;;10.15;6.03;;;10.50;99.90;;;;;;4965499;28;20047;-74
2022/12/13 09:06:10;;;;;;;8.90;5.88;;;10.60;99.90;;;;;;4965503;28;20049;-72
2022/12/13 09:08:38;;;;;;;11.70;6.85;;;10.60;99.90;;;;;;4966696;28;20039;-71
2022/12/13 09:11:07;;;;;;;5.70;4.57;;;10.70;99.90;;;;;;4955612;28;20571;-72
2022/12/13 09:13:36;;;;;;;7.35;4.95;;;10.70;99.90;;;;;;4963138;28;20105;-75
2022/12/13 09:16:08;;;;;;;11.25;5.35;;;10.70;99.90;;;;;;4959873;28;20042;-71
2022/12/13 09:18:35;;;;;;;8.25;5.72;;;10.80;99.90;;;;;;4956871;28;20059;-73
2022/12/13 09:21:13;;;;;;;8.18;5.55;;;10.80;99.90;;;;;;4959454;28;20112;-71
2022/12/13 09:23:41;;;;;;;12.07;6.93;;;10.80;99.90;;;;;;4975862;28;20117;-72
2022/12/13 09:26:11;;;;;;;9.23;6.43;;;10.80;99.90;;;;;;4966573;28;20061;-71
2022/12/13 09:28:39;;;;;;;10.27;6.00;;;10.90;99.90;;;;;;4962484;28;20086;-72
2022/12/13 09:31:13;;;;;;;9.70;5.13;;;10.90;99.90;;;;;;4959511;28;20046;-73
2022/12/13 09:33:41;;;;;;;18.25;8.68;;;11.00;99.90;;;;;;4958606;28;20050;-73
2022/12/13 09:36:18;;;;;;;18.92;10.18;;;11.00;99.90;;;;;;4957803;28;20501;-73
2022/12/13 09:38:46;;;;;;;13.82;8.88;;;11.10;99.90;;;;;;4958137;28;20057;-71
2022/12/13 09:41:18;;;;;;;10.50;6.70;;;11.10;99.90;;;;;;4961646;28;20113;-73
2022/12/13 09:43:52;;;;;;;11.15;6.10;;;11.20;99.90;;;;;;4968380;28;20051;-72
2022/12/13 09:46:26;;;;;;;9.75;7.07;;;11.20;99.90;;;;;;4952463;28;20046;-71
2022/12/13 09:48:55;;;;;;;8.68;6.38;;;11.30;99.90;;;;;;4968427;28;20047;-71
2022/12/13 09:51:24;;;;;;;13.48;7.15;;;11.30;99.90;;;;;;4967555;28;20441;-72
2022/12/13 09:53:53;;;;;;;8.98;5.45;;;11.30;99.90;;;;;;4968598;28;20382;-71
2022/12/13 09:56:22;;;;;;;7.63;5.85;;;11.30;99.90;;;;;;4968141;28;20385;-72
2022/12/13 09:58:52;;;;;;;14.38;4.75;;;11.30;99.90;;;;;;4969755;28;20125;-72
2022/12/13 10:01:20;;;;;;;9.93;5.63;;;11.30;99.90;;;;;;4968169;28;20169;-72
2022/12/13 10:03:50;;;;;;;6.60;4.97;;;11.30;99.90;;;;;;4952642;28;20125;-72
2022/12/13 10:06:21;;;;;;;8.68;4.40;;;11.30;99.90;;;;;;4961492;28;20039;-73
2022/12/13 10:08:53;;;;;;;10.00;4.70;;;11.30;99.90;;;;;;4952817;28;20075;-72
2022/12/13 10:11:22;;;;;;;7.18;5.60;;;11.30;99.90;;;;;;4948902;29;20134;-71
2022/12/13 10:14:17;;;;;;;7.82;4.40;;;11.30;99.90;;;;;;4949009;28;20383;-72
2022/12/13 10:16:56;;;;;;;7.00;3.90;;;11.30;99.90;;;;;;4943082;28;20071;-71
2022/12/13 10:19:45;;;;;;;9.07;4.75;;;11.30;99.90;;;;;;4969128;28;20481;-71
2022/12/13 10:22:15;;;;;;;8.40;4.30;;;11.40;99.90;;;;;;4968444;28;20059;-71
2022/12/13 10:24:51;;;;;;;8.45;4.78;;;11.40;99.90;;;;;;4952198;28;20042;-72
2022/12/13 10:27:38;;;;;;;9.10;4.85;;;11.50;99.90;;;;;;4953581;28;20126;-72
2022/12/13 10:30:21;;;;;;;10.40;5.47;;;11.40;99.90;;;;;;4952461;29;20097;-72
2022/12/13 10:32:52;;;;;;;11.23;6.13;;;11.50;99.90;;;;;;4952360;29;20098;-71
2022/12/13 10:35:31;;;;;;;7.82;4.60;;;11.50;99.90;;;;;;4935985;29;20458;-72
2022/12/13 10:38:25;;;;;;;11.52;5.78;;;11.50;99.90;;;;;;4952755;29;20438;-72
2022/12/13 10:40:53;;;;;;;6.65;4.10;;;11.50;99.90;;;;;;4952329;29;20043;-72
2022/12/13 10:43:29;;;;;;;9.48;3.33;;;11.50;99.90;;;;;;4952006;29;20402;-71
2022/12/13 10:45:57;;;;;;;6.82;4.55;;;11.50;99.90;;;;;;4939751;28;20058;-71
2022/12/13 10:48:39;;;;;;;8.43;4.65;;;11.60;99.90;;;;;;4973096;28;20093;-71
2022/12/13 10:51:14;;;;;;;13.63;4.72;;;11.60;99.90;;;;;;4955097;28;20165;-73
2022/12/13 10:54:03;;;;;;;8.00;4.10;;;11.60;99.90;;;;;;4972155;28;20508;-71
2022/12/13 10:56:44;;;;;;;6.30;3.78;;;11.70;99.90;;;;;;4963556;28;20078;-72
2022/12/13 10:59:29;;;;;;;6.28;3.70;;;11.70;99.90;;;;;;4936306;29;20063;-73
2022/12/13 11:01:59;;;;;;;8.77;6.00;;;11.70;99.90;;;;;;4935829;29;20051;-72
2022/12/13 11:04:34;;;;;;;8.85;5.47;;;11.70;99.90;;;;;;4951443;29;20513;-73
2022/12/13 11:07:23;;;;;;;10.02;5.00;;;11.70;99.90;;;;;;4960502;28;20047;-73
2022/12/13 11:09:51;;;;;;;12.23;6.57;;;11.80;99.90;;;;;;4954421;28;20402;-72
2022/12/13 11:12:26;;;;;;;10.85;7.28;;;11.80;99.90;;;;;;4951564;28;20458;-72
2022/12/13 11:15:05;;;;;;;13.25;8.35;;;11.70;99.90;;;;;;4970805;28;20090;-73
2022/12/13 11:17:38;;;;;;;14.07;8.60;;;11.70;99.90;;;;;;4969415;28;20047;-73
2022/12/13 11:20:24;;;;;;;13.63;6.15;;;11.70;99.90;;;;;;4970262;28;20101;-74
2022/12/13 11:23:19;;;;;;;10.02;5.03;;;11.70;99.90;;;;;;4971598;28;20089;-73
2022/12/13 11:25:47;;;;;;;8.77;4.70;;;11.70;99.90;;;;;;4971090;28;20047;-73
2022/12/13 11:28:31;;;;;;;6.20;4.80;;;11.80;99.90;;;;;;4959478;28;20036;-72
2022/12/13 11:31:42;;;;;;;6.30;4.35;;;11.70;99.90;;;;;;4951092;29;20407;-74
2022/12/13 11:34:40;;;;;;;9.38;5.55;;;11.80;99.90;;;;;;4950872;29;20466;-73
2022/12/13 11:37:17;;;;;;;10.27;6.72;;;11.80;99.90;;;;;;4934785;29;20055;-74
2022/12/13 11:40:05;;;;;;;8.55;5.72;;;11.80;99.90;;;;;;4948154;28;20066;-73
2022/12/13 11:42:43;;;;;;;10.07;5.32;;;11.80;99.90;;;;;;4969600;28;20385;-73
2022/12/13 11:45:26;;;;;;;8.35;6.28;;;11.80;99.90;;;;;;4954196;28;20058;-73
2022/12/13 11:47:54;;;;;;;12.15;5.72;;;11.80;99.90;;;;;;4969850;28;20065;-73
2022/12/13 11:50:34;;;;;;;5.63;3.08;;;11.80;99.90;;;;;;4959929;28;20053;-72
2022/12/13 11:53:19;;;;;;;9.82;4.40;;;11.80;99.90;;;;;;4953876;28;20047;-72
2022/12/13 11:56:10;;;;;;;5.40;3.67;;;11.90;99.90;;;;;;4971003;28;20046;-74
2022/12/13 11:59:06;;;;;;;6.25;3.78;;;11.90;99.90;;;;;;4953403;28;20502;-73
2022/12/13 12:01:54;;;;;;;7.63;4.10;;;11.90;99.90;;;;;;4954143;28;20054;-73
2022/12/13 12:04:29;;;;;;;5.75;2.78;;;12.00;99.90;;;;;;4953896;28;20070;-72
2022/12/13 12:07:12;;;;;;;7.93;2.90;;;12.00;99.90;;;;;;4937263;28;20062;-72
2022/12/13 12:10:37;;;;;;;6.10;4.10;;;12.10;99.90;;;;;;4950334;29;20039;-72
2022/12/13 12:13:14;;;;;;;5.88;2.92;;;12.10;99.90;;;;;;4953928;28;20055;-74
2022/12/13 12:16:05;;;;;;;6.95;4.32;;;12.10;99.90;;;;;;4968676;28;20047;-73
2022/12/13 12:18:35;;;;;;;4.60;3.10;;;12.10;99.90;;;;;;4969484;28;20054;-73
2022/12/13 12:21:14;;;;;;;8.50;5.07;;;12.10;99.90;;;;;;4969324;28;20043;-73
2022/12/13 12:23:50;;;;;;;6.28;3.78;;;12.10;99.90;;;;;;4968743;28;20042;-72
2022/12/13 12:26:27;;;;;;;5.38;4.32;;;12.10;99.90;;;;;;4933205;28;20599;-73
2022/12/13 12:29:40;;;;;;;8.70;5.45;;;12.10;99.90;;;;;;4966585;28;20042;-72
2022/12/13 12:32:19;;;;;;;5.72;3.88;;;12.00;99.90;;;;;;4960955;28;20039;-74
2022/12/13 12:35:06;;;;;;;6.75;4.55;;;12.00;99.90;;;;;;4959933;28;20114;-74
2022/12/13 12:37:50;;;;;;;8.00;5.30;;;11.90;99.90;;;;;;4960826;28;20055;-75
2022/12/13 12:40:33;;;;;;;8.05;4.90;;;11.80;99.90;;;;;;4955796;28;20051;-73
2022/12/13 12:43:21;;;;;;;10.20;5.25;;;11.80;99.90;;;;;;4955197;28;20031;-72
2022/12/13 12:45:51;;;;;;;;;;;11.80;99.90;;;;;;4977117;28;20047;-73
2022/12/13 12:49:04;;;;;;;11.70;6.72;;;11.80;99.90;;;;;;4957619;28;19973;-73
2022/12/13 12:51:54;;;;;;;10.25;4.38;;;11.70;99.90;;;;;;4955826;28;20520;-76
2022/12/13 12:54:49;;;;;;;9.48;4.95;;;11.70;99.90;;;;;;4963606;28;20043;-71
2022/12/13 12:57:45;;;;;;;4.63;2.72;;;11.70;99.90;;;;;;4959580;28;20050;-74
2022/12/13 13:00:18;;;;;;;3.70;2.47;;;11.70;99.90;;;;;;4943652;28;20035;-72
2022/12/13 13:02:58;;;;;;;9.80;5.30;;;11.70;99.90;;;;;;4951013;29;20133;-71
2022/12/13 13:05:43;;;;;;;8.15;4.38;;;11.70;99.90;;;;;;4949395;29;20141;-72
2022/12/13 13:08:18;;;;;;;12.27;6.22;;;11.70;99.90;;;;;;4949838;29;20727;-72
2022/12/13 13:10:47;;;;;;;9.20;4.68;;;11.80;99.90;;;;;;4962535;28;20057;-71
2022/12/13 13:13:46;;;;;;;7.15;3.95;;;11.80;99.90;;;;;;4969076;28;20144;-72
2022/12/13 13:16:26;;;;;;;7.35;3.67;;;11.80;99.90;;;;;;4968956;28;20062;-71
2022/12/13 13:19:02;;;;;;;5.38;4.15;;;11.80;99.90;;;;;;4969392;28;20050;-73
2022/12/13 13:21:30;;;;;;;6.47;3.75;;;11.80;99.90;;;;;;4950646;28;20393;-71